Terminal Aerodrome Forecast
Issued by NWS

Home | Current Version | Previous Version | Text Only | Print | Product List | Glossary On
Versions: 1 2 3 4 5 6 7 8 9 10 11 12
000
FTUS41 KBTV 250520
TAFMSS
TAF
KMSS 250520Z 2506/2606 07005KT P6SM BKN080
     FM251400 08010G16KT P6SM VCSH OVC100
     FM251700 10013G23KT 5SM -RA BR OVC045
     FM260000 08012G20KT 5SM -RA BR OVC025
     FM260300 08012KT P6SM VCSH OVC015=

USA.gov is the U.S. government's official web portal to all federal, state and local government web resources and services.